Aviation Digital Data Service (ADDS)

Output produced by TAFs form (0644 UTC 18 February 2018)
found at http://www.aviationweather.gov/adds/tafs/
 
METAR text: RJNG 180332Z 30015G25KT 260V350 9999 FEW030 SCT045 07/M08 Q1021 RMK 1CU030 3SC045 A3016
Conditions at: RJNG (GIFU (JASDF) , JP) observed 0332 UTC 18 February 2018
Temperature: 7.0°C (45°F)
Dewpoint: -8.0°C (18°F) [RH = 33%]
Pressure (altimeter): 30.15 inches Hg (1021.0 mb)
Winds: from the WNW (300 degrees) at 17 MPH (15 knots; 7.8 m/s)
gusting to 29 MPH (25 knots; 13.0 m/s)
Visibility: 6 or more miles (10+ km)
Ceiling: at least 12,000 feet AGL
Clouds: few clouds at 3000 feet AGL
scattered clouds at 4500 feet AGL
Weather: no significant weather observed at this time